Aérodrome :
LOGIN :

S'inscrire | Disclaimer

   EN    FR    IT 

 










Légende :    VFR   VFR Marginal   IFR   IFR Intensif   IFR Très Intensif
Visi : 
Plafond : 
>= 8 km
>= 3000ft
5 à 8 km
1000 à 3000 ft
1500m à 5 km
500 à 1000 ft
800 à 1500m
200 à 500 ft
< 800m
< 200 ft
Symboles :   Orages  Brouillard  Fortes neiges  Fortes précipitations  Vent > 20 kt
SIGMETs :   Divers  Orages  Givrage  Turbulence  Onde Orograph.  Cendres Volcan.






- Altitude de l'aérodrome : 46 ft
- Code IATA : SNN


EINN - Shannon

DERNIER METAR :
  • 061030Z 26016KT 9999 FEW008 SCT020 BKN060 10/08 Q1003 NOSIG

METARs EXPIRÉS :
  • 061000Z 26024KT 9000 -SHRA FEW008 SCT018CB BKN044 10/08 Q1003 NOSIG
  • 060930Z 26020KT 9000 FEW008 FEW018CB BKN040 09/08 Q1002 NOSIG
  • 060900Z 25017KT 9000 -SHRA FEW008 FEW018CB BKN060 10/08 Q1002 NOSIG
  • 060830Z 26017KT 9999 FEW008 SCT018CB BKN044 09/08 Q1001 NOSIG
  • 060800Z 26018KT 7000 -SHRA FEW008 SCT012 SCT018CB BKN025 10/09 Q1001 NOSIG

TAF TAF EINN
Valide du 06 à 06h jusqu'au 07 à 06h UTC


060500Z 0606/0706 26016G26KT 9999 SCT018
TEMPO 0608/0611 -SHRA SCT018CB
PROB30
TEMPO 0608/0611 27020G37KT SHRA BKN012
BECMG 0610/0612 29016G27KT
BECMG 0615/0617 28013KT
BECMG 0620/0622 25008KT



MET'MAP, la Météo Aéronautique d'un coup d'oeil ! - Copyright ORBIFLY Décembre 2007 - Disclaimer

ORBIFLY MET'MAP TEAM :

Programmation & Développement : Alexandra Zaïnal
Sur une idée originale de : Baudouin d'Aumeries
Assistance à la programmation : Marc-Olivier Méhu
Soutien technique & logistique : Manuel Goepfert

Contact : metmap@orbifly.com




SOURCES & CREDITS :

   NOAA